sensor_id;sensor_type;location;lat;lon;timestamp;pressure;altitude;pressure_sealevel;temperature;humidity
40838;BME280;29632;49.168;9.848;2023-04-03T00:01:28;97546.81;;;9.96;49.17
40838;BME280;29632;49.168;9.848;2023-04-03T00:03:54;97541.63;;;9.96;49.40
40838;BME280;29632;49.168;9.848;2023-04-03T00:06:20;97539.03;;;9.96;49.28
40838;BME280;29632;49.168;9.848;2023-04-03T00:08:45;97535.44;;;9.97;49.57
40838;BME280;29632;49.168;9.848;2023-04-03T00:11:11;97530.13;;;9.99;49.23
40838;BME280;29632;49.168;9.848;2023-04-03T00:13:37;97535.22;;;10.00;49.44
40838;BME280;29632;49.168;9.848;2023-04-03T00:16:04;97535.91;;;10.02;49.17
40838;BME280;29632;49.168;9.848;2023-04-03T00:18:30;97532.50;;;10.02;49.51
40838;BME280;29632;49.168;9.848;2023-04-03T00:20:55;97540.19;;;10.04;49.50
40838;BME280;29632;49.168;9.848;2023-04-03T00:23:21;97539.38;;;10.03;49.39
40838;BME280;29632;49.168;9.848;2023-04-03T00:25:49;97536.75;;;10.03;49.54
40838;BME280;29632;49.168;9.848;2023-04-03T00:28:15;97534.16;;;10.03;49.07
40838;BME280;29632;49.168;9.848;2023-04-03T00:30:40;97542.91;;;10.02;49.11
40838;BME280;29632;49.168;9.848;2023-04-03T00:33:06;97542.09;;;10.01;49.29
40838;BME280;29632;49.168;9.848;2023-04-03T00:35:33;97540.31;;;10.02;49.32
40838;BME280;29632;49.168;9.848;2023-04-03T00:37:59;97548.94;;;10.02;49.16
40838;BME280;29632;49.168;9.848;2023-04-03T00:40:26;97542.09;;;10.01;49.21
40838;BME280;29632;49.168;9.848;2023-04-03T00:42:57;97537.00;;;10.00;49.43
40838;BME280;29632;49.168;9.848;2023-04-03T00:47:51;97538.78;;;9.99;49.17
40838;BME280;29632;49.168;9.848;2023-04-03T00:50:17;97539.72;;;9.98;49.13
40838;BME280;29632;49.168;9.848;2023-04-03T00:52:43;97542.56;;;9.95;49.47
40838;BME280;29632;49.168;9.848;2023-04-03T00:55:11;97541.63;;;9.96;49.52
40838;BME280;29632;49.168;9.848;2023-04-03T00:57:37;97535.56;;;9.96;49.27
40838;BME280;29632;49.168;9.848;2023-04-03T01:00:12;97542.56;;;9.95;49.02
40838;BME280;29632;49.168;9.848;2023-04-03T01:02:38;97537.34;;;9.95;48.93
40838;BME280;29632;49.168;9.848;2023-04-03T01:05:06;97534.63;;;9.97;49.11
40838;BME280;29632;49.168;9.848;2023-04-03T01:07:32;97532.97;;;9.96;48.91
40838;BME280;29632;49.168;9.848;2023-04-03T01:10:01;97531.22;;;9.96;49.00
40838;BME280;29632;49.168;9.848;2023-04-03T01:12:31;97536.53;;;9.95;48.94
40838;BME280;29632;49.168;9.848;2023-04-03T01:14:59;97538.31;;;9.94;49.28
40838;BME280;29632;49.168;9.848;2023-04-03T01:25:31;97544.47;;;9.93;49.39
40838;BME280;29632;49.168;9.848;2023-04-03T01:27:57;97542.69;;;9.94;49.17
40838;BME280;29632;49.168;9.848;2023-04-03T01:30:25;97535.84;;;9.93;49.16
40838;BME280;29632;49.168;9.848;2023-04-03T01:32:53;97545.41;;;9.92;49.26
40838;BME280;29632;49.168;9.848;2023-04-03T01:35:18;97541.16;;;9.91;49.18
40838;BME280;29632;49.168;9.848;2023-04-03T01:37:44;97540.34;;;9.91;49.18
40838;BME280;29632;49.168;9.848;2023-04-03T01:40:10;97548.00;;;9.92;49.31
40838;BME280;29632;49.168;9.848;2023-04-03T01:42:36;97532.38;;;9.92;49.02
40838;BME280;29632;49.168;9.848;2023-04-03T01:45:02;97540.19;;;9.92;49.23
40838;BME280;29632;49.168;9.848;2023-04-03T01:47:27;97540.19;;;9.92;49.17
40838;BME280;29632;49.168;9.848;2023-04-03T01:49:53;97539.38;;;9.92;48.95
40838;BME280;29632;49.168;9.848;2023-04-03T01:52:19;97541.97;;;9.92;48.85
40838;BME280;29632;49.168;9.848;2023-04-03T01:54:44;97543.75;;;9.91;49.10
40838;BME280;29632;49.168;9.848;2023-04-03T01:57:10;97541.97;;;9.92;49.15
40838;BME280;29632;49.168;9.848;2023-04-03T01:59:35;97538.44;;;9.93;48.85
40838;BME280;29632;49.168;9.848;2023-04-03T02:02:01;97542.69;;;9.94;49.01
40838;BME280;29632;49.168;9.848;2023-04-03T02:04:27;97541.84;;;9.93;48.90
40838;BME280;29632;49.168;9.848;2023-04-03T02:06:52;97543.66;;;9.93;48.91
40838;BME280;29632;49.168;9.848;2023-04-03T02:09:18;97546.25;;;9.93;49.18
40838;BME280;29632;49.168;9.848;2023-04-03T02:11:43;97550.47;;;9.94;48.84
40838;BME280;29632;49.168;9.848;2023-04-03T02:14:09;97546.25;;;9.93;49.28
40838;BME280;29632;49.168;9.848;2023-04-03T02:16:35;97546.25;;;9.93;49.01
40838;BME280;29632;49.168;9.848;2023-04-03T02:19:01;97550.59;;;9.92;48.63
40838;BME280;29632;49.168;9.848;2023-04-03T02:21:27;97554.88;;;9.93;48.63
40838;BME280;29632;49.168;9.848;2023-04-03T02:23:53;97548.84;;;9.93;48.57
40838;BME280;29632;49.168;9.848;2023-04-03T02:26:19;97543.66;;;9.93;48.82
40838;BME280;29632;49.168;9.848;2023-04-03T02:28:45;97546.25;;;9.93;48.89
40838;BME280;29632;49.168;9.848;2023-04-03T02:31:11;97548.84;;;9.93;48.84
40838;BME280;29632;49.168;9.848;2023-04-03T02:33:37;97550.75;;;9.91;48.85
40838;BME280;29632;49.168;9.848;2023-04-03T02:36:04;97546.34;;;9.91;48.71
40838;BME280;29632;49.168;9.848;2023-04-03T02:38:30;97544.69;;;9.90;48.74
40838;BME280;29632;49.168;9.848;2023-04-03T02:41:03;97533.59;;;9.88;48.81
40838;BME280;29632;49.168;9.848;2023-04-03T02:43:29;97538.09;;;9.86;49.08
40838;BME280;29632;49.168;9.848;2023-04-03T02:45:55;97542.59;;;9.84;49.12
40838;BME280;29632;49.168;9.848;2023-04-03T02:48:20;97543.53;;;9.83;48.65
40838;BME280;29632;49.168;9.848;2023-04-03T02:50:46;97544.50;;;9.82;49.09
40838;BME280;29632;49.168;9.848;2023-04-03T02:53:11;97548.03;;;9.81;48.68
40838;BME280;29632;49.168;9.848;2023-04-03T02:55:37;97547.22;;;9.80;48.91
40838;BME280;29632;49.168;9.848;2023-04-03T02:58:03;97548.16;;;9.79;49.02
40838;BME280;29632;49.168;9.848;2023-04-03T03:00:29;97547.44;;;9.77;48.98
40838;BME280;29632;49.168;9.848;2023-04-03T03:02:55;97547.56;;;9.76;48.92
40838;BME280;29632;49.168;9.848;2023-04-03T03:05:21;97544.13;;;9.75;48.86
40838;BME280;29632;49.168;9.848;2023-04-03T03:07:47;97544.25;;;9.74;48.89
40838;BME280;29632;49.168;9.848;2023-04-03T03:10:13;97535.63;;;9.73;48.69
40838;BME280;29632;49.168;9.848;2023-04-03T03:12:39;97538.34;;;9.72;48.97
40838;BME280;29632;49.168;9.848;2023-04-03T03:15:06;97540.94;;;9.72;48.92
40838;BME280;29632;49.168;9.848;2023-04-03T03:17:32;97541.19;;;9.69;48.62
40838;BME280;29632;49.168;9.848;2023-04-03T03:19:58;97538.69;;;9.67;48.88
40838;BME280;29632;49.168;9.848;2023-04-03T03:22:24;97538.94;;;9.64;48.87
40838;BME280;29632;49.168;9.848;2023-04-03T03:24:49;97546.72;;;9.64;48.87
40838;BME280;29632;49.168;9.848;2023-04-03T03:27:15;97548.50;;;9.63;49.01
40838;BME280;29632;49.168;9.848;2023-04-03T03:29:42;97542.63;;;9.61;48.53
40838;BME280;29632;49.168;9.848;2023-04-03T03:32:07;97548.88;;;9.59;48.86
40838;BME280;29632;49.168;9.848;2023-04-03T03:34:33;97542.97;;;9.57;48.84
40838;BME280;29632;49.168;9.848;2023-04-03T03:36:59;97550.75;;;9.57;48.59
40838;BME280;29632;49.168;9.848;2023-04-03T03:39:25;97552.66;;;9.55;48.71
40838;BME280;29632;49.168;9.848;2023-04-03T03:41:50;97549.34;;;9.53;48.78
40838;BME280;29632;49.168;9.848;2023-04-03T03:44:19;97544.16;;;9.53;48.80
40838;BME280;29632;49.168;9.848;2023-04-03T03:46:45;97545.09;;;9.52;48.70
40838;BME280;29632;49.168;9.848;2023-04-03T03:49:10;97539.06;;;9.51;48.89
40838;BME280;29632;49.168;9.848;2023-04-03T03:51:37;97542.59;;;9.50;48.87
40838;BME280;29632;49.168;9.848;2023-04-03T03:54:04;97538.47;;;9.48;48.58
40838;BME280;29632;49.168;9.848;2023-04-03T03:56:30;97537.66;;;9.47;48.35
40838;BME280;29632;49.168;9.848;2023-04-03T03:58:55;97541.31;;;9.44;48.75
40838;BME280;29632;49.168;9.848;2023-04-03T04:01:22;97539.63;;;9.43;48.95
40838;BME280;29632;49.168;9.848;2023-04-03T04:03:48;97538.94;;;9.41;48.83
40838;BME280;29632;49.168;9.848;2023-04-03T04:06:14;97533.84;;;9.40;48.49
40838;BME280;29632;49.168;9.848;2023-04-03T04:08:39;97536.59;;;9.38;48.72
40838;BME280;29632;49.168;9.848;2023-04-03T04:11:05;97530.66;;;9.36;48.44
40838;BME280;29632;49.168;9.848;2023-04-03T04:13:31;97537.66;;;9.36;48.49
40838;BME280;29632;49.168;9.848;2023-04-03T04:15:57;97539.44;;;9.35;48.53
40838;BME280;29632;49.168;9.848;2023-04-03T04:18:22;97533.53;;;9.33;48.42
40838;BME280;29632;49.168;9.848;2023-04-03T04:20:49;97537.16;;;9.31;48.55
40838;BME280;29632;49.168;9.848;2023-04-03T04:23:16;97536.47;;;9.29;48.30
40838;BME280;29632;49.168;9.848;2023-04-03T04:25:44;97534.91;;;9.26;48.43
40838;BME280;29632;49.168;9.848;2023-04-03T04:28:10;97532.78;;;9.20;48.44
40838;BME280;29632;49.168;9.848;2023-04-03T04:30:36;97537.50;;;9.15;48.78
40838;BME280;29632;49.168;9.848;2023-04-03T04:33:02;97532.53;;;9.12;48.42
40838;BME280;29632;49.168;9.848;2023-04-03T04:35:27;97530.16;;;9.08;49.01
40838;BME280;29632;49.168;9.848;2023-04-03T04:37:53;97540.69;;;9.07;48.50
40838;BME280;29632;49.168;9.848;2023-04-03T04:40:19;97540.81;;;9.05;48.57
40838;BME280;29632;49.168;9.848;2023-04-03T04:42:44;97542.81;;;9.02;48.69
40838;BME280;29632;49.168;9.848;2023-04-03T04:45:10;97540.44;;;8.99;48.58
40838;BME280;29632;49.168;9.848;2023-04-03T04:47:36;97537.13;;;8.97;48.84
40838;BME280;29632;49.168;9.848;2023-04-03T04:50:02;97545.75;;;8.97;48.25
40838;BME280;29632;49.168;9.848;2023-04-03T04:52:27;97545.03;;;8.95;48.37
40838;BME280;29632;49.168;9.848;2023-04-03T04:54:53;97545.03;;;8.95;48.25
40838;BME280;29632;49.168;9.848;2023-04-03T04:57:18;97549.53;;;8.93;48.68
40838;BME280;29632;49.168;9.848;2023-04-03T04:59:44;97550.56;;;8.91;48.48
40838;BME280;29632;49.168;9.848;2023-04-03T05:02:10;97546.34;;;8.90;48.49
40838;BME280;29632;49.168;9.848;2023-04-03T05:04:35;97546.44;;;8.88;49.19
40838;BME280;29632;49.168;9.848;2023-04-03T05:07:01;97556.00;;;8.87;48.39
40838;BME280;29632;49.168;9.848;2023-04-03T05:09:27;97553.53;;;8.86;48.53
40838;BME280;29632;49.168;9.848;2023-04-03T05:11:52;97551.16;;;8.83;48.40
40838;BME280;29632;49.168;9.848;2023-04-03T05:14:18;97548.78;;;8.80;48.52
40838;BME280;29632;49.168;9.848;2023-04-03T05:16:43;97551.47;;;8.78;48.88
40838;BME280;29632;49.168;9.848;2023-04-03T05:19:09;97555.97;;;8.76;48.88
40838;BME280;29632;49.168;9.848;2023-04-03T05:21:35;97559.63;;;8.74;48.85
40838;BME280;29632;49.168;9.848;2023-04-03T05:24:01;97550.19;;;8.73;48.58
40838;BME280;29632;49.168;9.848;2023-04-03T05:26:30;97560.91;;;8.68;48.13
40838;BME280;29632;49.168;9.848;2023-04-03T05:28:56;97551.56;;;8.65;48.24
40838;BME280;29632;49.168;9.848;2023-04-03T05:31:22;97554.16;;;8.65;48.59
40838;BME280;29632;49.168;9.848;2023-04-03T05:33:49;97561.84;;;8.67;48.43
40838;BME280;29632;49.168;9.848;2023-04-03T05:36:15;97562.78;;;8.66;48.79
40838;BME280;29632;49.168;9.848;2023-04-03T05:38:40;97560.28;;;8.64;48.58
40838;BME280;29632;49.168;9.848;2023-04-03T05:41:06;97573.38;;;8.63;48.13
40838;BME280;29632;49.168;9.848;2023-04-03T05:43:32;97558.75;;;8.62;48.71
40838;BME280;29632;49.168;9.848;2023-04-03T05:45:59;97567.47;;;8.61;48.66
40838;BME280;29632;49.168;9.848;2023-04-03T05:48:24;97575.28;;;8.61;48.35
40838;BME280;29632;49.168;9.848;2023-04-03T05:50:51;97566.66;;;8.60;48.87
40838;BME280;29632;49.168;9.848;2023-04-03T05:53:27;97573.50;;;8.61;48.86
40838;BME280;29632;49.168;9.848;2023-04-03T05:55:53;97575.97;;;8.63;48.52
40838;BME280;29632;49.168;9.848;2023-04-03T05:58:19;97572.47;;;8.64;48.19
40838;BME280;29632;49.168;9.848;2023-04-03T06:00:44;97577.66;;;8.64;48.60
40838;BME280;29632;49.168;9.848;2023-04-03T06:03:10;97580.13;;;8.65;48.79
40838;BME280;29632;49.168;9.848;2023-04-03T06:05:36;97585.22;;;8.67;48.44
40838;BME280;29632;49.168;9.848;2023-04-03T06:08:02;97580.03;;;8.67;48.08
40838;BME280;29632;49.168;9.848;2023-04-03T06:10:29;97582.53;;;8.68;48.51
40838;BME280;29632;49.168;9.848;2023-04-03T06:12:55;97580.63;;;8.71;48.21
40838;BME280;29632;49.168;9.848;2023-04-03T06:15:21;97587.34;;;8.73;48.36
40838;BME280;29632;49.168;9.848;2023-04-03T06:17:47;97597.41;;;8.78;48.23
40838;BME280;29632;49.168;9.848;2023-04-03T06:20:13;97586.81;;;8.81;48.25
40838;BME280;29632;49.168;9.848;2023-04-03T06:22:38;97587.41;;;8.84;48.44
40838;BME280;29632;49.168;9.848;2023-04-03T06:25:05;97592.25;;;8.89;47.98
40838;BME280;29632;49.168;9.848;2023-04-03T06:27:31;97594.03;;;8.88;48.38
40838;BME280;29632;49.168;9.848;2023-04-03T06:29:57;97589.53;;;8.91;48.13
40838;BME280;29632;49.168;9.848;2023-04-03T06:32:22;97602.41;;;8.92;48.43
40838;BME280;29632;49.168;9.848;2023-04-03T06:34:48;97603.25;;;8.93;48.23
40838;BME280;29632;49.168;9.848;2023-04-03T06:37:19;97600.53;;;8.94;48.27
40838;BME280;29632;49.168;9.848;2023-04-03T06:39:45;97602.09;;;8.97;48.60
40838;BME280;29632;49.168;9.848;2023-04-03T06:42:11;97602.81;;;8.99;48.38
40838;BME280;29632;49.168;9.848;2023-04-03T06:44:37;97606.09;;;9.01;48.62
40838;BME280;29632;49.168;9.848;2023-04-03T06:47:03;97616.50;;;9.01;48.14
40838;BME280;29632;49.168;9.848;2023-04-03T06:49:29;97625.38;;;8.98;48.24
40838;BME280;29632;49.168;9.848;2023-04-03T06:51:55;97630.66;;;8.97;48.54
40838;BME280;29632;49.168;9.848;2023-04-03T06:54:22;97621.09;;;8.97;48.28
40838;BME280;29632;49.168;9.848;2023-04-03T06:56:48;97619.22;;;8.99;48.35
40838;BME280;29632;49.168;9.848;2023-04-03T06:59:13;97629.50;;;9.01;48.34
40838;BME280;29632;49.168;9.848;2023-04-03T07:01:40;97634.59;;;9.02;48.62
40838;BME280;29632;49.168;9.848;2023-04-03T07:04:07;97636.97;;;9.05;48.55
40838;BME280;29632;49.168;9.848;2023-04-03T07:06:33;97642.88;;;9.07;48.42
40838;BME280;29632;49.168;9.848;2023-04-03T07:08:59;97631.28;;;9.12;48.06
40838;BME280;29632;49.168;9.848;2023-04-03T07:11:25;97645.84;;;9.14;48.31
40838;BME280;29632;49.168;9.848;2023-04-03T07:13:51;97639.47;;;9.18;48.19
40838;BME280;29632;49.168;9.848;2023-04-03T07:16:17;97636.53;;;9.23;48.32
40838;BME280;29632;49.168;9.848;2023-04-03T07:18:44;97638.53;;;9.31;48.03
40838;BME280;29632;49.168;9.848;2023-04-03T07:21:10;97633.13;;;9.34;48.16
40838;BME280;29632;49.168;9.848;2023-04-03T07:23:36;97644.81;;;9.39;48.24
40838;BME280;29632;49.168;9.848;2023-04-03T07:26:01;97649.69;;;9.44;48.45
40838;BME280;29632;49.168;9.848;2023-04-03T07:28:27;97646.03;;;9.47;48.40
40838;BME280;29632;49.168;9.848;2023-04-03T07:30:59;97647.56;;;9.49;48.33
40838;BME280;29632;49.168;9.848;2023-04-03T07:33:25;97654.19;;;9.53;48.17
40838;BME280;29632;49.168;9.848;2023-04-03T07:35:50;97653.16;;;9.56;48.12
40838;BME280;29632;49.168;9.848;2023-04-03T07:38:16;97652.78;;;9.60;47.99
40838;BME280;29632;49.168;9.848;2023-04-03T07:40:48;97658.69;;;9.62;48.40
40838;BME280;29632;49.168;9.848;2023-04-03T07:43:17;97656.94;;;9.63;48.09
40838;BME280;29632;49.168;9.848;2023-04-03T07:45:43;97665.44;;;9.65;48.34
40838;BME280;29632;49.168;9.848;2023-04-03T07:48:12;97674.78;;;9.68;47.84
40838;BME280;29632;49.168;9.848;2023-04-03T07:50:41;97671.94;;;9.71;48.28
40838;BME280;29632;49.168;9.848;2023-04-03T07:53:07;97667.44;;;9.73;48.05
40838;BME280;29632;49.168;9.848;2023-04-03T07:55:33;97668.91;;;9.77;48.12
40838;BME280;29632;49.168;9.848;2023-04-03T07:57:59;97669.38;;;9.82;48.20
40838;BME280;29632;49.168;9.848;2023-04-03T08:00:25;97665.69;;;9.85;47.87
40838;BME280;29632;49.168;9.848;2023-04-03T08:02:50;97667.09;;;9.89;47.98
40838;BME280;29632;49.168;9.848;2023-04-03T08:05:20;97663.34;;;9.93;48.05
40838;BME280;29632;49.168;9.848;2023-04-03T08:07:47;97664.75;;;9.97;48.21
40838;BME280;29632;49.168;9.848;2023-04-03T08:10:14;97661.91;;;10.00;47.89
40838;BME280;29632;49.168;9.848;2023-04-03T08:12:39;97665.09;;;10.04;47.90
40838;BME280;29632;49.168;9.848;2023-04-03T08:15:06;97669.72;;;10.11;48.06
40838;BME280;29632;49.168;9.848;2023-04-03T08:17:32;97677.06;;;10.17;47.91
40838;BME280;29632;49.168;9.848;2023-04-03T08:19:58;97680.94;;;10.23;48.01
40838;BME280;29632;49.168;9.848;2023-04-03T08:22:23;97672.78;;;10.28;47.63
40838;BME280;29632;49.168;9.848;2023-04-03T08:24:50;97675.03;;;10.32;48.00
40838;BME280;29632;49.168;9.848;2023-04-03T08:27:15;97676.47;;;10.36;47.65
40838;BME280;29632;49.168;9.848;2023-04-03T08:29:41;97678.59;;;10.43;47.69
40838;BME280;29632;49.168;9.848;2023-04-03T08:32:07;97680.00;;;10.47;47.75
40838;BME280;29632;49.168;9.848;2023-04-03T08:34:32;97680.47;;;10.52;47.87
40838;BME280;29632;49.168;9.848;2023-04-03T08:37:01;97688.72;;;10.57;47.85
40838;BME280;29632;49.168;9.848;2023-04-03T08:39:27;97688.13;;;10.65;47.49
40838;BME280;29632;49.168;9.848;2023-04-03T08:41:53;97679.81;;;10.71;47.52
40838;BME280;29632;49.168;9.848;2023-04-03T08:49:49;97687.03;;;10.79;47.66
40838;BME280;29632;49.168;9.848;2023-04-03T08:52:18;97691.16;;;10.81;47.53
40838;BME280;29632;49.168;9.848;2023-04-03T08:57:20;97686.28;;;10.88;47.83
40838;BME280;29632;49.168;9.848;2023-04-03T08:59:51;97688.53;;;10.92;47.71
40838;BME280;29632;49.168;9.848;2023-04-03T09:02:25;97696.69;;;10.99;47.89
40838;BME280;29632;49.168;9.848;2023-04-03T09:04:53;97694.41;;;11.06;47.64
40838;BME280;29632;49.168;9.848;2023-04-03T09:07:30;97695.69;;;11.11;47.53
40838;BME280;29632;49.168;9.848;2023-04-03T09:10:00;97702.06;;;11.19;47.50
40838;BME280;29632;49.168;9.848;2023-04-03T09:12:39;97690.41;;;11.23;47.74
40838;BME280;29632;49.168;9.848;2023-04-03T09:15:19;97693.22;;;11.31;47.56
40838;BME280;29632;49.168;9.848;2023-04-03T09:23:31;97691.25;;;11.44;47.61
40838;BME280;29632;49.168;9.848;2023-04-03T09:26:13;97696.09;;;11.49;47.46
40838;BME280;29632;49.168;9.848;2023-04-03T09:28:40;97687.03;;;11.53;47.46
40838;BME280;29632;49.168;9.848;2023-04-03T09:31:36;97692.03;;;11.56;47.47
40838;BME280;29632;49.168;9.848;2023-04-03T09:34:06;97695.31;;;11.58;47.71
40838;BME280;29632;49.168;9.848;2023-04-03T09:36:43;97689.84;;;11.61;47.72
40838;BME280;29632;49.168;9.848;2023-04-03T09:39:18;97683.56;;;11.64;47.59
40838;BME280;29632;49.168;9.848;2023-04-03T09:44:23;97688.81;;;11.74;47.59
40838;BME280;29632;49.168;9.848;2023-04-03T09:46:49;97689.97;;;11.81;47.59
40838;BME280;29632;49.168;9.848;2023-04-03T09:49:15;97692.06;;;11.87;47.46
40838;BME280;29632;49.168;9.848;2023-04-03T09:51:40;97687.53;;;11.89;47.78
40838;BME280;29632;49.168;9.848;2023-04-03T09:57:00;97689.94;;;11.92;47.54
40838;BME280;29632;49.168;9.848;2023-04-03T09:59:26;97686.34;;;11.93;47.58
40838;BME280;29632;49.168;9.848;2023-04-03T10:02:02;97687.06;;;11.95;47.31
40838;BME280;29632;49.168;9.848;2023-04-03T10:04:41;97686.91;;;11.97;47.34
40838;BME280;29632;49.168;9.848;2023-04-03T10:07:27;97684.28;;;11.97;47.35
40838;BME280;29632;49.168;9.848;2023-04-03T10:09:59;97683.22;;;11.99;47.30
40838;BME280;29632;49.168;9.848;2023-04-03T10:12:25;97682.13;;;12.02;47.37
40838;BME280;29632;49.168;9.848;2023-04-03T10:17:35;97672.53;;;12.02;47.48
40838;BME280;29632;49.168;9.848;2023-04-03T10:23:18;97672.66;;;12.01;47.47
40838;BME280;29632;49.168;9.848;2023-04-03T10:28:44;97680.75;;;11.98;47.32
40838;BME280;29632;49.168;9.848;2023-04-03T10:45:24;97670.59;;;12.04;47.26
40838;BME280;29632;49.168;9.848;2023-04-03T10:50:37;97669.25;;;12.10;47.04
40838;BME280;29632;49.168;9.848;2023-04-03T10:53:08;97663.06;;;12.11;47.28
40838;BME280;29632;49.168;9.848;2023-04-03T10:55:53;97663.91;;;12.12;47.38
40838;BME280;29632;49.168;9.848;2023-04-03T11:01:26;97674.09;;;12.15;47.12
40838;BME280;29632;49.168;9.848;2023-04-03T11:03:58;97662.66;;;12.16;47.08
40838;BME280;29632;49.168;9.848;2023-04-03T11:06:26;97667.63;;;12.19;47.19
40838;BME280;29632;49.168;9.848;2023-04-03T11:09:05;97668.19;;;12.22;47.25
40838;BME280;29632;49.168;9.848;2023-04-03T11:11:35;97665.56;;;12.22;46.86
40838;BME280;29632;49.168;9.848;2023-04-03T11:14:30;97658.56;;;12.23;47.02
40838;BME280;29632;49.168;9.848;2023-04-03T11:22:54;97661.72;;;12.26;46.75
40838;BME280;29632;49.168;9.848;2023-04-03T11:25:25;97655.56;;;12.27;46.49
40838;BME280;29632;49.168;9.848;2023-04-03T11:27:57;97646.47;;;12.32;46.95
40838;BME280;29632;49.168;9.848;2023-04-03T11:35:51;97642.13;;;12.42;46.51
40838;BME280;29632;49.168;9.848;2023-04-03T11:38:23;97638.56;;;12.43;46.76
40838;BME280;29632;49.168;9.848;2023-04-03T11:40:52;97651.34;;;12.46;46.75
40838;BME280;29632;49.168;9.848;2023-04-03T11:43:26;97649.44;;;12.48;46.68
40838;BME280;29632;49.168;9.848;2023-04-03T11:46:01;97645.97;;;12.47;46.77
40838;BME280;29632;49.168;9.848;2023-04-03T11:53:39;97645.44;;;12.54;46.20
40838;BME280;29632;49.168;9.848;2023-04-03T12:04:10;97629.09;;;12.71;46.06
40838;BME280;29632;49.168;9.848;2023-04-03T12:09:33;97630.75;;;12.72;46.05
40838;BME280;29632;49.168;9.848;2023-04-03T12:11:58;97627.44;;;12.70;46.22
40838;BME280;29632;49.168;9.848;2023-04-03T12:14:25;97624.56;;;12.73;46.39
40838;BME280;29632;49.168;9.848;2023-04-03T12:16:52;97621.53;;;12.78;46.09
40838;BME280;29632;49.168;9.848;2023-04-03T12:19:37;97620.16;;;12.83;46.28
40838;BME280;29632;49.168;9.848;2023-04-03T12:22:18;97617.16;;;12.88;46.46
40838;BME280;29632;49.168;9.848;2023-04-03T12:24:50;97617.56;;;12.93;45.99
40838;BME280;29632;49.168;9.848;2023-04-03T12:27:40;97611.88;;;12.98;46.16
40838;BME280;29632;49.168;9.848;2023-04-03T12:30:21;97616.03;;;13.00;45.77
40838;BME280;29632;49.168;9.848;2023-04-03T12:33:16;97612.44;;;13.01;45.79
40838;BME280;29632;49.168;9.848;2023-04-03T12:38:38;97607.34;;;13.10;45.83
40838;BME280;29632;49.168;9.848;2023-04-03T12:41:36;97605.28;;;13.13;45.87
40838;BME280;29632;49.168;9.848;2023-04-03T12:46:47;97606.91;;;13.24;45.57
40838;BME280;29632;49.168;9.848;2023-04-03T12:49:41;97598.66;;;13.29;45.38
40838;BME280;29632;49.168;9.848;2023-04-03T12:52:32;97599.59;;;13.28;45.68
40838;BME280;29632;49.168;9.848;2023-04-03T12:54:59;97600.31;;;13.30;45.56
40838;BME280;29632;49.168;9.848;2023-04-03T12:57:26;97592.88;;;13.35;45.78
40838;BME280;29632;49.168;9.848;2023-04-03T12:59:53;97597.69;;;13.39;45.35
40838;BME280;29632;49.168;9.848;2023-04-03T13:02:23;97596.59;;;13.42;45.88
40838;BME280;29632;49.168;9.848;2023-04-03T13:04:51;97591.19;;;13.44;45.54
40838;BME280;29632;49.168;9.848;2023-04-03T13:07:27;97589.41;;;13.44;45.84
40838;BME280;29632;49.168;9.848;2023-04-03T13:09:59;97587.63;;;13.45;45.64
40838;BME280;29632;49.168;9.848;2023-04-03T13:12:25;97591.75;;;13.47;45.22
40838;BME280;29632;49.168;9.848;2023-04-03T13:14:57;97594.38;;;13.47;45.42
40838;BME280;29632;49.168;9.848;2023-04-03T13:17:24;97589.28;;;13.46;45.43
40838;BME280;29632;49.168;9.848;2023-04-03T13:19:51;97592.72;;;13.46;45.31
40838;BME280;29632;49.168;9.848;2023-04-03T13:24:55;97585.25;;;13.51;45.70
40838;BME280;29632;49.168;9.848;2023-04-03T13:27:22;97585.38;;;13.59;45.46
40838;BME280;29632;49.168;9.848;2023-04-03T13:29:52;97586.44;;;13.67;45.62
40838;BME280;29632;49.168;9.848;2023-04-03T13:32:21;97583.09;;;13.74;44.90
40838;BME280;29632;49.168;9.848;2023-04-03T13:34:48;97584.16;;;13.82;45.34
40838;BME280;29632;49.168;9.848;2023-04-03T13:37:30;97579.88;;;13.90;45.02
40838;BME280;29632;49.168;9.848;2023-04-03T13:40:16;97580.41;;;13.94;45.13
40838;BME280;29632;49.168;9.848;2023-04-03T13:42:42;97578.63;;;13.94;45.24
40838;BME280;29632;49.168;9.848;2023-04-03T13:45:26;97587.97;;;13.97;44.94
40838;BME280;29632;49.168;9.848;2023-04-03T13:48:07;97589.09;;;13.94;44.83
40838;BME280;29632;49.168;9.848;2023-04-03T13:50:41;97581.38;;;13.93;44.87
40838;BME280;29632;49.168;9.848;2023-04-03T13:53:15;97583.84;;;13.94;44.88
40838;BME280;29632;49.168;9.848;2023-04-03T13:56:05;97581.91;;;13.96;45.21
40838;BME280;29632;49.168;9.848;2023-04-03T13:58:32;97581.16;;;14.04;44.98
40838;BME280;29632;49.168;9.848;2023-04-03T14:06:10;97573.56;;;14.11;44.65
40838;BME280;29632;49.168;9.848;2023-04-03T14:08:36;97577.13;;;14.10;44.65
40838;BME280;29632;49.168;9.848;2023-04-03T14:11:02;97577.00;;;14.11;44.75
40838;BME280;29632;49.168;9.848;2023-04-03T14:13:30;97570.50;;;14.15;44.60
40838;BME280;29632;49.168;9.848;2023-04-03T14:15:56;97573.50;;;14.21;44.82
40838;BME280;29632;49.168;9.848;2023-04-03T14:18:21;97570.44;;;14.25;44.50
40838;BME280;29632;49.168;9.848;2023-04-03T14:20:48;97576.19;;;14.29;44.58
40838;BME280;29632;49.168;9.848;2023-04-03T14:23:13;97571.81;;;14.29;44.83
40838;BME280;29632;49.168;9.848;2023-04-03T14:25:40;97575.38;;;14.28;44.87
40838;BME280;29632;49.168;9.848;2023-04-03T14:28:18;97558.00;;;14.27;44.74
40838;BME280;29632;49.168;9.848;2023-04-03T14:30:45;97563.94;;;14.29;44.50
40838;BME280;29632;49.168;9.848;2023-04-03T14:33:14;97554.66;;;14.35;44.81
40838;BME280;29632;49.168;9.848;2023-04-03T14:35:41;97558.63;;;14.39;44.53
40838;BME280;29632;49.168;9.848;2023-04-03T14:38:23;97561.91;;;14.41;44.73
40838;BME280;29632;49.168;9.848;2023-04-03T14:40:49;97561.91;;;14.41;44.66
40838;BME280;29632;49.168;9.848;2023-04-03T14:43:15;97557.50;;;14.42;44.31
40838;BME280;29632;49.168;9.848;2023-04-03T14:45:41;97556.81;;;14.40;44.57
40838;BME280;29632;49.168;9.848;2023-04-03T14:48:12;97561.25;;;14.39;44.21
40838;BME280;29632;49.168;9.848;2023-04-03T14:50:41;97557.66;;;14.40;44.20
40838;BME280;29632;49.168;9.848;2023-04-03T14:53:07;97554.38;;;14.38;44.32